Time;durP1;ratioP1;P1;durP2;ratioP2;P2;SDS_P1;SDS_P2;PMS_P1;PMS_P2;Temp;Humidity;BMP_temperature;BMP_pressure;BME280_temperature;BME280_humidity;BME280_pressure;Samples;Min_cycle;Max_cycle;Signal;HPM_P1;HPM_P2
2021/10/16 00:01:14;;;;;;;24.75;14.98;;;10.10;81.50;;;;;;5079768;28;20049;-77
2021/10/16 00:03:40;;;;;;;19.67;13.88;;;10.10;81.80;;;;;;5079005;28;20493;-77
2021/10/16 00:06:06;;;;;;;16.90;11.80;;;10.10;81.20;;;;;;5080566;28;20098;-77
2021/10/16 00:08:33;;;;;;;21.33;13.88;;;10.00;80.10;;;;;;5092382;28;20031;-77
2021/10/16 00:10:58;;;;;;;18.45;12.43;;;10.00;80.00;;;;;;5080869;28;20025;-78
2021/10/16 00:13:24;;;;;;;17.80;12.35;;;10.00;79.70;;;;;;5090899;28;20102;-77
2021/10/16 00:15:50;;;;;;;27.35;16.50;;;9.90;79.60;;;;;;5078635;28;20082;-77
2021/10/16 00:18:17;;;;;;;31.63;18.60;;;9.90;79.60;;;;;;5082134;28;20031;-77
2021/10/16 00:20:42;;;;;;;29.17;18.10;;;9.90;79.70;;;;;;5080171;28;20383;-77
2021/10/16 00:23:08;;;;;;;24.63;16.35;;;9.90;79.70;;;;;;5083339;28;20039;-77
2021/10/16 00:25:34;;;;;;;22.92;14.55;;;9.90;79.70;;;;;;5078784;28;20059;-77
2021/10/16 00:28:00;;;;;;;20.55;13.68;;;9.80;79.40;;;;;;5079711;28;20032;-76
2021/10/16 00:30:26;;;;;;;19.92;13.00;;;9.80;79.10;;;;;;5095417;28;20433;-76
2021/10/16 00:32:52;;;;;;;20.55;14.15;;;9.80;78.90;;;;;;5089469;28;20039;-76
2021/10/16 00:35:18;;;;;;;22.67;14.60;;;9.80;79.30;;;;;;5093962;28;20064;-77
2021/10/16 00:37:44;;;;;;;23.10;14.70;;;9.80;79.20;;;;;;5096873;28;20564;-76
2021/10/16 00:40:10;;;;;;;19.77;13.23;;;9.80;79.20;;;;;;5093374;28;20035;-76
2021/10/16 00:42:50;;;;;;;22.02;13.75;;;9.70;79.40;;;;;;5096547;28;20021;-77
2021/10/16 00:45:18;;;;;;;17.58;12.32;;;9.70;79.20;;;;;;5083986;28;20025;-77
2021/10/16 00:47:45;;;;;;;19.38;12.90;;;9.70;79.20;;;;;;5099532;28;20032;-76
2021/10/16 00:50:12;;;;;;;20.13;12.93;;;9.70;79.20;;;;;;5093624;28;20027;-76
2021/10/16 00:52:40;;;;;;;20.73;12.70;;;9.60;79.20;;;;;;5097229;28;20063;-76
2021/10/16 00:55:08;;;;;;;18.02;12.40;;;9.60;79.00;;;;;;5099269;28;20027;-76
2021/10/16 00:57:34;;;;;;;15.45;11.57;;;9.60;79.00;;;;;;5096374;28;20024;-76
2021/10/16 01:00:01;;;;;;;16.58;11.45;;;9.50;79.00;;;;;;5091524;28;20051;-76
2021/10/16 01:02:27;;;;;;;16.30;11.93;;;9.50;78.90;;;;;;5097883;28;20368;-77
2021/10/16 01:04:53;;;;;;;17.48;11.93;;;9.50;79.40;;;;;;5098086;28;20027;-76
2021/10/16 01:07:19;;;;;;;16.60;11.60;;;9.50;78.90;;;;;;5099436;28;20134;-77
2021/10/16 01:09:46;;;;;;;14.88;11.23;;;9.50;78.70;;;;;;5088992;28;20032;-76
2021/10/16 01:12:12;;;;;;;15.77;10.82;;;9.40;78.70;;;;;;5081941;28;20028;-77
2021/10/16 01:14:58;;;;;;;17.80;11.02;;;9.40;78.70;;;;;;5099893;28;20020;-77
2021/10/16 01:17:25;;;;;;;16.15;11.73;;;9.40;78.80;;;;;;5089022;28;20028;-76
2021/10/16 01:20:05;;;;;;;15.60;11.77;;;9.30;78.70;;;;;;5092602;28;20394;-76
2021/10/16 01:22:32;;;;;;;16.38;12.00;;;9.30;78.60;;;;;;5091819;28;20027;-76
2021/10/16 01:24:59;;;;;;;14.82;10.25;;;9.30;78.60;;;;;;5094293;28;20016;-77
2021/10/16 01:27:25;;;;;;;13.95;10.25;;;9.30;78.40;;;;;;5092704;28;20024;-76
2021/10/16 01:29:52;;;;;;;15.65;11.32;;;9.20;78.50;;;;;;5086464;28;20028;-76
2021/10/16 01:32:18;;;;;;;15.55;10.65;;;9.20;78.70;;;;;;5087477;28;20403;-76
2021/10/16 01:34:44;;;;;;;14.20;10.13;;;9.20;78.90;;;;;;5093711;28;20028;-76
2021/10/16 01:37:10;;;;;;;14.75;10.65;;;9.20;79.00;;;;;;5093258;28;20131;-76
2021/10/16 01:39:36;;;;;;;15.95;11.38;;;9.30;78.90;;;;;;5093872;28;20020;-76
2021/10/16 01:42:02;;;;;;;15.40;11.27;;;9.30;79.60;;;;;;5084991;28;20472;-77
2021/10/16 01:44:28;;;;;;;13.98;9.82;;;9.30;79.20;;;;;;5089920;28;20479;-76
2021/10/16 01:46:54;;;;;;;14.20;10.52;;;9.30;79.00;;;;;;5091064;28;20040;-76
2021/10/16 01:49:20;;;;;;;16.42;12.25;;;9.30;79.40;;;;;;5081534;28;20491;-76
2021/10/16 01:51:48;;;;;;;17.95;12.55;;;9.30;80.50;;;;;;5097146;28;20053;-76
2021/10/16 01:54:15;;;;;;;14.90;11.20;;;9.40;81.40;;;;;;5096426;28;20471;-77
2021/10/16 01:56:41;;;;;;;17.67;12.55;;;9.40;80.60;;;;;;5098342;28;20024;-76
2021/10/16 01:59:17;;;;;;;22.63;13.02;;;9.40;81.10;;;;;;5090212;28;20025;-76
2021/10/16 02:01:43;;;;;;;19.35;13.10;;;9.40;81.30;;;;;;5090609;28;20028;-76
2021/10/16 02:04:10;;;;;;;17.92;11.75;;;9.40;81.60;;;;;;5093923;28;20020;-76
2021/10/16 02:06:36;;;;;;;18.92;12.23;;;9.40;80.80;;;;;;5096579;28;20452;-77
2021/10/16 02:09:03;;;;;;;27.17;13.63;;;9.50;80.90;;;;;;5091856;28;20028;-76
2021/10/16 02:11:29;;;;;;;19.45;13.48;;;9.40;81.60;;;;;;5078475;28;20025;-76
2021/10/16 02:13:55;;;;;;;15.88;11.45;;;9.50;83.00;;;;;;5097899;28;20035;-76
2021/10/16 02:16:21;;;;;;;15.60;11.20;;;9.40;82.20;;;;;;5099689;28;20027;-76
2021/10/16 02:18:47;;;;;;;15.10;11.13;;;9.50;81.80;;;;;;5097396;28;20024;-76
2021/10/16 02:21:12;;;;;;;15.10;11.00;;;9.40;81.40;;;;;;5096672;28;20020;-76
2021/10/16 02:23:38;;;;;;;14.93;11.07;;;9.40;81.40;;;;;;5096966;28;20016;-76
2021/10/16 02:26:04;;;;;;;15.27;11.05;;;9.40;81.80;;;;;;5096108;28;20417;-76
2021/10/16 02:28:30;;;;;;;13.57;9.85;;;9.40;81.00;;;;;;5095364;28;20031;-77
2021/10/16 02:30:56;;;;;;;14.25;10.90;;;9.40;80.70;;;;;;5097179;28;20020;-76
2021/10/16 02:33:22;;;;;;;14.55;10.85;;;9.40;81.90;;;;;;5095700;28;20059;-76
2021/10/16 02:35:47;;;;;;;14.75;10.82;;;9.40;82.30;;;;;;5097567;28;20536;-76
2021/10/16 02:38:13;;;;;;;17.38;11.43;;;9.40;81.60;;;;;;5095897;28;20518;-76
2021/10/16 02:40:39;;;;;;;14.55;11.00;;;9.40;82.50;;;;;;5084694;28;20020;-76
2021/10/16 02:43:05;;;;;;;16.10;11.43;;;9.40;82.40;;;;;;5093641;28;20624;-76
2021/10/16 02:45:31;;;;;;;15.88;12.07;;;9.40;83.40;;;;;;5092693;28;20050;-76
2021/10/16 02:47:57;;;;;;;15.98;11.52;;;9.40;82.80;;;;;;5094673;28;20115;-76
2021/10/16 02:50:23;;;;;;;15.25;10.95;;;9.30;83.20;;;;;;5082396;28;20028;-76
2021/10/16 02:52:49;;;;;;;13.75;10.55;;;9.30;83.00;;;;;;5095402;28;20035;-76
2021/10/16 02:55:16;;;;;;;15.95;12.27;;;9.30;83.90;;;;;;5094315;28;20054;-76
2021/10/16 02:57:43;;;;;;;19.70;12.38;;;9.30;84.10;;;;;;5087022;28;20056;-76
2021/10/16 03:00:09;;;;;;;14.05;10.20;;;9.40;85.70;;;;;;5091214;28;20020;-76
2021/10/16 03:02:35;;;;;;;15.00;10.80;;;9.30;83.70;;;;;;5096821;28;20028;-76
2021/10/16 03:05:02;;;;;;;13.40;9.95;;;9.30;85.20;;;;;;5093318;28;20387;-76
2021/10/16 03:07:28;;;;;;;13.35;9.55;;;9.30;83.60;;;;;;5093108;28;20390;-77
2021/10/16 03:09:54;;;;;;;14.13;9.32;;;9.30;82.90;;;;;;5089642;28;20024;-76
2021/10/16 03:12:20;;;;;;;13.80;10.38;;;9.20;82.20;;;;;;5096690;28;20035;-76
2021/10/16 03:14:46;;;;;;;12.65;9.70;;;9.20;82.30;;;;;;5100393;28;20039;-76
2021/10/16 03:17:11;;;;;;;11.55;9.68;;;9.20;82.00;;;;;;5099872;28;20025;-76
2021/10/16 03:19:37;;;;;;;13.02;9.55;;;9.10;81.50;;;;;;5096718;28;20471;-76
2021/10/16 03:22:04;;;;;;;12.43;8.85;;;9.10;81.30;;;;;;5101281;28;20447;-76
2021/10/16 03:24:31;;;;;;;12.38;9.45;;;9.10;81.00;;;;;;5091178;28;20016;-75
2021/10/16 03:26:57;;;;;;;12.70;9.13;;;9.10;80.80;;;;;;5098700;28;20028;-76
2021/10/16 03:29:22;;;;;;;14.10;9.52;;;9.10;80.80;;;;;;5096138;28;20021;-76
2021/10/16 03:31:48;;;;;;;17.15;11.70;;;9.10;81.20;;;;;;5100060;28;20049;-76
2021/10/16 03:34:14;;;;;;;14.52;11.48;;;9.10;82.40;;;;;;5087572;28;20050;-76
2021/10/16 03:36:40;;;;;;;12.52;9.68;;;9.10;83.70;;;;;;5100854;28;20075;-76
2021/10/16 03:39:06;;;;;;;12.10;9.25;;;9.10;83.60;;;;;;5095839;28;20067;-77
2021/10/16 03:41:31;;;;;;;16.02;11.48;;;9.10;82.50;;;;;;5093639;28;20556;-76
2021/10/16 03:43:57;;;;;;;12.82;10.32;;;9.10;84.70;;;;;;5092506;28;20024;-77
2021/10/16 03:46:23;;;;;;;14.07;10.93;;;9.10;84.10;;;;;;5092149;28;20444;-77
2021/10/16 03:48:49;;;;;;;13.10;9.73;;;9.10;85.00;;;;;;5091516;28;20024;-76
2021/10/16 03:51:15;;;;;;;12.05;8.98;;;9.10;83.60;;;;;;5091819;28;20024;-76
2021/10/16 03:53:41;;;;;;;12.75;9.90;;;9.10;82.50;;;;;;5100323;28;20495;-76
2021/10/16 03:56:06;;;;;;;13.35;9.88;;;9.10;83.10;;;;;;5100587;28;20368;-76
2021/10/16 03:58:32;;;;;;;12.48;8.95;;;9.10;83.10;;;;;;5099997;28;20024;-76
2021/10/16 04:01:02;;;;;;;11.68;9.05;;;9.10;82.30;;;;;;5089949;28;20116;-76
2021/10/16 04:03:30;;;;;;;12.40;9.80;;;9.00;81.70;;;;;;5089679;28;20024;-76
2021/10/16 04:05:56;;;;;;;12.82;9.57;;;9.10;82.40;;;;;;5099839;28;20105;-76
2021/10/16 04:08:22;;;;;;;15.02;10.30;;;9.10;82.40;;;;;;5100134;28;20027;-76
2021/10/16 04:10:48;;;;;;;12.27;8.85;;;9.10;83.20;;;;;;5094474;28;20024;-76
2021/10/16 04:13:14;;;;;;;13.00;9.63;;;9.10;82.40;;;;;;5088256;28;20020;-76
2021/10/16 04:15:40;;;;;;;12.10;8.70;;;9.10;82.30;;;;;;5099565;28;20104;-76
2021/10/16 04:18:06;;;;;;;11.85;9.15;;;9.10;82.50;;;;;;5100070;28;20059;-76
2021/10/16 04:20:33;;;;;;;11.18;8.73;;;9.00;81.80;;;;;;5097236;28;20107;-76
2021/10/16 04:22:59;;;;;;;11.23;8.77;;;9.00;81.60;;;;;;5099966;28;20024;-76
2021/10/16 04:25:25;;;;;;;12.63;9.38;;;9.10;81.00;;;;;;5099323;28;20039;-76
2021/10/16 04:27:51;;;;;;;12.30;8.77;;;9.10;81.30;;;;;;5098314;28;20017;-76
2021/10/16 04:30:18;;;;;;;12.77;9.45;;;9.10;82.00;;;;;;5086002;28;20086;-76
2021/10/16 04:32:44;;;;;;;12.70;8.65;;;9.10;82.10;;;;;;5099714;28;20031;-76
2021/10/16 04:35:10;;;;;;;12.70;9.40;;;9.10;81.50;;;;;;5099466;28;20036;-76
2021/10/16 04:37:36;;;;;;;11.35;8.55;;;9.10;81.90;;;;;;5099562;28;20047;-76
2021/10/16 04:40:13;;;;;;;12.52;8.73;;;9.10;81.20;;;;;;5088035;28;20025;-76
2021/10/16 04:42:41;;;;;;;12.40;9.25;;;9.10;80.80;;;;;;5097987;28;20040;-76
2021/10/16 04:45:08;;;;;;;11.23;7.55;;;9.10;80.80;;;;;;5087944;28;20024;-76
2021/10/16 04:47:34;;;;;;;13.35;9.40;;;9.10;80.80;;;;;;5096341;28;20593;-76
2021/10/16 04:50:00;;;;;;;12.85;9.95;;;9.10;80.70;;;;;;5084050;28;20028;-76
2021/10/16 04:52:26;;;;;;;14.57;9.90;;;9.20;81.60;;;;;;5099778;28;20559;-76
2021/10/16 04:54:52;;;;;;;13.98;10.10;;;9.20;82.10;;;;;;5098713;28;20020;-76
2021/10/16 04:57:17;;;;;;;12.38;9.07;;;9.20;81.40;;;;;;5098481;28;20398;-76
2021/10/16 04:59:43;;;;;;;12.95;9.45;;;9.20;80.70;;;;;;5095042;28;20016;-76
2021/10/16 05:02:09;;;;;;;13.00;9.30;;;9.20;80.70;;;;;;5087007;28;20024;-76
2021/10/16 05:04:35;;;;;;;13.77;9.70;;;9.20;80.90;;;;;;5098967;28;20034;-76
2021/10/16 05:07:01;;;;;;;12.43;9.00;;;9.20;81.10;;;;;;5099486;28;20031;-76
2021/10/16 05:09:26;;;;;;;13.05;9.57;;;9.20;81.20;;;;;;5095727;28;20024;-76
2021/10/16 05:11:52;;;;;;;15.02;9.95;;;9.20;81.30;;;;;;5089494;28;20024;-76
2021/10/16 05:14:18;;;;;;;13.90;9.82;;;9.20;81.40;;;;;;5098963;28;20032;-76
2021/10/16 05:16:44;;;;;;;13.60;9.68;;;9.20;81.80;;;;;;5098994;28;20115;-76
2021/10/16 05:19:10;;;;;;;14.40;9.52;;;9.20;82.20;;;;;;5095528;28;20091;-76
2021/10/16 05:21:35;;;;;;;16.23;10.48;;;9.20;81.60;;;;;;5082995;28;20547;-76
2021/10/16 05:24:01;;;;;;;14.32;9.60;;;9.20;82.30;;;;;;5078704;28;20383;-76
2021/10/16 05:26:27;;;;;;;12.68;9.85;;;9.30;82.70;;;;;;5078844;28;20029;-76
2021/10/16 05:28:56;;;;;;;12.30;9.25;;;9.20;83.40;;;;;;5088447;28;20028;-76
2021/10/16 05:31:23;;;;;;;12.15;9.30;;;9.20;83.40;;;;;;5085109;28;20032;-76
2021/10/16 05:33:49;;;;;;;10.35;8.05;;;9.20;82.40;;;;;;5096652;28;20046;-76
2021/10/16 05:36:15;;;;;;;11.93;8.45;;;9.20;82.10;;;;;;5083282;28;20048;-76
2021/10/16 05:38:41;;;;;;;11.02;8.32;;;9.20;81.70;;;;;;5084760;28;20387;-76
2021/10/16 05:41:07;;;;;;;12.23;8.43;;;9.20;82.00;;;;;;5096808;28;20149;-76
2021/10/16 05:43:33;;;;;;;10.68;7.97;;;9.20;82.00;;;;;;5087378;28;20031;-76
2021/10/16 05:46:01;;;;;;;10.30;7.78;;;9.20;82.10;;;;;;5091136;28;20028;-76
2021/10/16 05:48:30;;;;;;;11.35;8.23;;;9.10;81.60;;;;;;5090435;28;20016;-76
2021/10/16 05:50:57;;;;;;;10.35;8.20;;;9.20;81.60;;;;;;5078384;28;20017;-76
2021/10/16 05:53:22;;;;;;;9.95;8.10;;;9.10;81.10;;;;;;5098305;28;20035;-76
2021/10/16 05:55:48;;;;;;;9.10;7.32;;;9.10;80.90;;;;;;5080697;28;20012;-76
2021/10/16 05:58:14;;;;;;;9.73;7.15;;;9.10;80.60;;;;;;5080977;28;20503;-76
2021/10/16 06:00:40;;;;;;;10.10;7.82;;;9.10;80.60;;;;;;5092803;28;20048;-76
2021/10/16 06:03:06;;;;;;;9.27;7.05;;;9.10;80.90;;;;;;5091050;28;20020;-76
2021/10/16 06:05:35;;;;;;;8.38;6.80;;;9.10;80.90;;;;;;5092278;28;20028;-76
2021/10/16 06:08:01;;;;;;;11.10;8.00;;;9.10;80.60;;;;;;5078189;28;20025;-76
2021/10/16 06:10:27;;;;;;;9.55;7.15;;;9.00;80.40;;;;;;5088995;28;20109;-76
2021/10/16 06:12:53;;;;;;;9.30;7.28;;;9.10;80.40;;;;;;5098057;28;20024;-76
2021/10/16 06:15:18;;;;;;;9.90;7.28;;;9.10;81.50;;;;;;5081473;28;20051;-76
2021/10/16 06:17:44;;;;;;;8.25;7.05;;;9.10;80.50;;;;;;5077848;28;20046;-76
2021/10/16 06:20:10;;;;;;;9.50;7.57;;;9.00;80.60;;;;;;5086743;28;20024;-76
2021/10/16 06:22:37;;;;;;;9.38;7.50;;;9.10;80.70;;;;;;5089673;28;20021;-76
2021/10/16 06:25:03;;;;;;;9.85;7.80;;;9.00;80.60;;;;;;5078361;28;20025;-76
2021/10/16 06:27:29;;;;;;;10.25;8.10;;;9.00;81.30;;;;;;5078765;28;20082;-76
2021/10/16 06:29:55;;;;;;;10.30;7.65;;;9.00;80.50;;;;;;5083633;28;20103;-76
2021/10/16 06:32:21;;;;;;;10.70;8.52;;;9.00;80.60;;;;;;5092324;28;20032;-76
2021/10/16 06:34:47;;;;;;;10.32;7.57;;;9.00;80.30;;;;;;5096008;28;20027;-76
2021/10/16 06:37:13;;;;;;;11.18;8.25;;;9.00;80.30;;;;;;5076125;28;20474;-76
2021/10/16 06:39:39;;;;;;;11.68;8.77;;;9.00;80.50;;;;;;5084841;28;20058;-76
2021/10/16 06:42:04;;;;;;;13.40;9.82;;;9.00;80.80;;;;;;5091479;28;20422;-76
2021/10/16 06:44:30;;;;;;;13.73;9.98;;;8.90;80.70;;;;;;5088790;28;20033;-76
2021/10/16 06:46:56;;;;;;;12.95;9.77;;;8.90;81.00;;;;;;5079024;28;20028;-76
2021/10/16 06:49:22;;;;;;;11.10;8.38;;;8.90;81.00;;;;;;5094799;28;20501;-76
2021/10/16 06:51:48;;;;;;;10.65;8.02;;;8.90;81.10;;;;;;5085856;28;20437;-76
2021/10/16 06:54:14;;;;;;;11.90;9.05;;;8.90;81.00;;;;;;5095776;28;20038;-76
2021/10/16 06:56:40;;;;;;;12.20;8.70;;;8.90;81.20;;;;;;5090383;28;20074;-76
2021/10/16 06:59:06;;;;;;;10.88;8.20;;;8.90;81.40;;;;;;5076048;28;20116;-76
2021/10/16 07:01:31;;;;;;;11.50;8.52;;;8.90;81.30;;;;;;5089323;28;20013;-76
2021/10/16 07:03:57;;;;;;;9.65;7.93;;;9.00;81.40;;;;;;5077326;28;20028;-76
2021/10/16 07:06:23;;;;;;;10.70;8.20;;;8.90;81.30;;;;;;5077412;28;20082;-76
2021/10/16 07:08:49;;;;;;;10.35;8.73;;;9.00;81.60;;;;;;5076888;28;20043;-76
2021/10/16 07:11:15;;;;;;;10.55;8.18;;;9.00;81.70;;;;;;5080907;28;20028;-76
2021/10/16 07:13:40;;;;;;;10.20;8.10;;;9.00;81.80;;;;;;5096194;28;20016;-76
2021/10/16 07:16:06;;;;;;;10.45;7.88;;;9.00;81.80;;;;;;5078097;28;20028;-76
2021/10/16 07:18:32;;;;;;;10.60;7.80;;;9.10;81.50;;;;;;5083470;28;20020;-76
2021/10/16 07:20:58;;;;;;;9.80;7.85;;;9.10;81.60;;;;;;5089533;28;20031;-76
2021/10/16 07:23:27;;;;;;;9.90;8.35;;;9.10;82.40;;;;;;5076970;28;20055;-76
2021/10/16 07:25:57;;;;;;;11.48;9.15;;;9.20;82.20;;;;;;5077000;28;20471;-76
2021/10/16 07:28:23;;;;;;;10.75;8.35;;;9.20;82.10;;;;;;5075617;28;20028;-76
2021/10/16 07:30:50;;;;;;;10.68;9.07;;;9.30;82.30;;;;;;5076801;28;20055;-76
2021/10/16 07:33:15;;;;;;;11.38;9.00;;;9.30;82.40;;;;;;5090251;28;20024;-76
2021/10/16 07:35:43;;;;;;;11.65;8.52;;;9.30;82.30;;;;;;5087857;28;20023;-76
2021/10/16 07:38:10;;;;;;;10.73;8.45;;;9.40;82.60;;;;;;5075656;28;20069;-76
2021/10/16 07:40:36;;;;;;;9.68;7.93;;;9.40;82.60;;;;;;5076980;28;20103;-76
2021/10/16 07:43:01;;;;;;;10.48;8.38;;;9.50;82.50;;;;;;5087216;28;20047;-76
2021/10/16 07:45:27;;;;;;;10.77;8.35;;;9.50;82.90;;;;;;5085707;28;20017;-76
2021/10/16 07:47:54;;;;;;;11.20;8.27;;;9.60;82.70;;;;;;5076768;28;20042;-77
2021/10/16 07:50:20;;;;;;;12.07;8.85;;;9.70;82.80;;;;;;5076759;28;20031;-76
2021/10/16 07:52:46;;;;;;;9.65;7.65;;;9.70;83.10;;;;;;5093307;28;20032;-76
2021/10/16 07:55:12;;;;;;;12.10;8.30;;;9.70;82.80;;;;;;5085263;28;20563;-76
2021/10/16 07:57:38;;;;;;;9.93;7.80;;;9.80;82.70;;;;;;5076683;28;20028;-76
2021/10/16 08:00:08;;;;;;;9.30;7.47;;;9.90;82.70;;;;;;5076037;28;20498;-77
2021/10/16 08:02:34;;;;;;;9.15;7.40;;;9.90;82.60;;;;;;5090184;28;20016;-76
2021/10/16 08:05:01;;;;;;;9.07;7.25;;;10.00;82.60;;;;;;5077207;28;20020;-76
2021/10/16 08:07:29;;;;;;;9.40;7.38;;;10.10;82.80;;;;;;5080384;28;20032;-76
2021/10/16 08:09:54;;;;;;;10.10;7.95;;;10.20;82.80;;;;;;5080461;28;20502;-76
2021/10/16 08:12:20;;;;;;;9.18;7.68;;;10.20;82.90;;;;;;5093020;28;20032;-76
2021/10/16 08:14:46;;;;;;;11.25;8.13;;;10.30;82.60;;;;;;5088908;28;20028;-76
2021/10/16 08:17:12;;;;;;;12.35;9.38;;;10.30;82.60;;;;;;5080194;28;20024;-76
2021/10/16 08:19:38;;;;;;;11.93;9.30;;;10.40;82.70;;;;;;5080305;28;20386;-76
2021/10/16 08:22:03;;;;;;;11.68;8.55;;;10.40;82.80;;;;;;5080022;28;20025;-76
2021/10/16 08:24:29;;;;;;;10.88;9.00;;;10.40;82.60;;;;;;5078989;28;20379;-76
2021/10/16 08:26:55;;;;;;;12.13;9.80;;;10.40;83.00;;;;;;5080012;28;20028;-76
2021/10/16 08:29:21;;;;;;;12.93;9.55;;;10.50;82.90;;;;;;5079864;28;20029;-76
2021/10/16 08:31:47;;;;;;;12.77;9.57;;;10.60;83.00;;;;;;5080976;28;20063;-75
2021/10/16 08:34:13;;;;;;;11.10;8.77;;;10.60;83.00;;;;;;5098597;28;20033;-76
2021/10/16 08:36:39;;;;;;;11.52;9.20;;;10.70;82.90;;;;;;5080583;28;20044;-76
2021/10/16 08:39:06;;;;;;;13.60;9.88;;;10.70;82.80;;;;;;5084481;28;20494;-76
2021/10/16 08:41:34;;;;;;;13.45;10.57;;;10.80;82.90;;;;;;5090262;28;20024;-76
2021/10/16 08:44:00;;;;;;;13.88;10.18;;;10.90;82.90;;;;;;5094850;28;20020;-76
2021/10/16 08:46:27;;;;;;;12.35;9.07;;;11.00;83.00;;;;;;5089613;28;20034;-76
2021/10/16 08:49:00;;;;;;;12.70;9.85;;;11.10;82.90;;;;;;5095432;28;20154;-75
2021/10/16 08:51:26;;;;;;;13.27;10.07;;;11.20;83.00;;;;;;5093037;28;20421;-76
2021/10/16 08:53:51;;;;;;;14.80;11.25;;;11.20;83.00;;;;;;5090412;28;20082;-76
2021/10/16 08:56:21;;;;;;;13.38;10.68;;;11.30;83.00;;;;;;5092170;28;20058;-76
2021/10/16 08:58:47;;;;;;;13.35;9.88;;;11.40;82.80;;;;;;5085939;28;20079;-76
2021/10/16 09:01:13;;;;;;;13.02;9.70;;;11.40;82.90;;;;;;5090879;28;20028;-76
2021/10/16 09:03:45;;;;;;;13.88;10.27;;;11.50;82.60;;;;;;5082470;28;20486;-76
2021/10/16 09:06:30;;;;;;;15.02;10.68;;;11.50;82.60;;;;;;5083795;28;20021;-76
2021/10/16 09:09:03;;;;;;;14.65;10.43;;;11.50;82.80;;;;;;5091548;28;20111;-76
2021/10/16 09:11:49;;;;;;;13.93;10.68;;;11.60;82.70;;;;;;5085709;28;20028;-76
2021/10/16 09:14:21;;;;;;;13.70;9.82;;;11.60;82.80;;;;;;5084663;28;20429;-76
2021/10/16 09:16:47;;;;;;;14.30;10.63;;;11.60;82.70;;;;;;5089588;28;20020;-78
2021/10/16 09:19:20;;;;;;;15.63;11.13;;;11.70;82.70;;;;;;5094881;28;20024;-77
2021/10/16 09:21:54;;;;;;;17.80;11.82;;;11.70;82.60;;;;;;5085415;28;20020;-77
2021/10/16 09:24:27;;;;;;;15.88;11.90;;;11.80;82.80;;;;;;5083302;28;20470;-76
2021/10/16 09:26:57;;;;;;;15.88;11.15;;;11.90;82.60;;;;;;5091492;28;20024;-76
2021/10/16 09:29:28;;;;;;;15.93;11.98;;;11.90;82.60;;;;;;5080005;28;20032;-76
2021/10/16 09:31:57;;;;;;;15.80;11.77;;;12.00;82.70;;;;;;5084909;28;20526;-76
2021/10/16 09:34:44;;;;;;;16.33;12.60;;;12.00;82.70;;;;;;5094813;28;20043;-74
2021/10/16 09:37:20;;;;;;;18.90;12.13;;;12.10;82.70;;;;;;5089244;28;20036;-76
2021/10/16 09:39:49;;;;;;;19.30;13.38;;;12.10;82.50;;;;;;5080341;28;20027;-76
2021/10/16 09:42:36;;;;;;;17.35;12.43;;;12.20;83.10;;;;;;5094772;28;20020;-76
2021/10/16 09:45:05;;;;;;;16.90;12.40;;;12.20;82.40;;;;;;5092552;28;20127;-76
2021/10/16 09:47:31;;;;;;;18.30;13.40;;;12.30;82.40;;;;;;5077320;28;20031;-76
2021/10/16 09:50:06;;;;;;;16.50;11.68;;;12.30;82.50;;;;;;5077830;28;20060;-76
2021/10/16 09:52:34;;;;;;;18.02;12.43;;;12.40;82.60;;;;;;5084277;28;20490;-76
2021/10/16 09:55:00;;;;;;;17.77;12.73;;;12.50;82.60;;;;;;5090435;28;20036;-75
2021/10/16 09:57:26;;;;;;;16.35;11.90;;;12.60;82.70;;;;;;5090475;28;20032;-74
2021/10/16 09:59:52;;;;;;;16.58;12.60;;;12.60;82.60;;;;;;5095627;28;20043;-78
2021/10/16 10:02:19;;;;;;;16.67;12.63;;;12.70;82.80;;;;;;5078783;28;20060;-76
2021/10/16 10:04:49;;;;;;;17.50;13.23;;;12.80;82.70;;;;;;5088884;28;20403;-79
2021/10/16 10:07:17;;;;;;;17.08;12.73;;;12.90;82.80;;;;;;5088315;28;20109;-76
2021/10/16 10:09:45;;;;;;;17.55;12.98;;;12.90;82.50;;;;;;5091584;28;20029;-74
2021/10/16 10:12:12;;;;;;;18.45;14.23;;;13.10;82.80;;;;;;5084512;28;20470;-74
2021/10/16 10:14:44;;;;;;;18.55;13.63;;;13.10;82.60;;;;;;5078730;28;20017;-74
2021/10/16 10:17:12;;;;;;;18.73;13.85;;;13.20;82.30;;;;;;5076698;28;20058;-73
2021/10/16 10:19:44;;;;;;;17.48;13.85;;;13.20;82.10;;;;;;5078115;28;20062;-76
2021/10/16 10:22:17;;;;;;;21.63;15.45;;;13.30;82.00;;;;;;5095728;28;20031;-74
2021/10/16 10:24:51;;;;;;;20.77;15.07;;;13.40;81.90;;;;;;5078904;28;20056;-76
2021/10/16 10:27:20;;;;;;;19.85;14.30;;;13.40;81.80;;;;;;5077514;28;20486;-76
2021/10/16 10:29:50;;;;;;;21.55;14.63;;;13.50;81.80;;;;;;5077522;28;20510;-79
2021/10/16 10:32:24;;;;;;;19.23;14.68;;;13.60;81.80;;;;;;5092852;28;20032;-78
2021/10/16 10:35:08;;;;;;;25.52;17.15;;;13.70;82.00;;;;;;5095833;28;20016;-78
2021/10/16 10:37:39;;;;;;;21.02;15.98;;;13.80;81.90;;;;;;5095609;28;20091;-82
2021/10/16 10:40:21;;;;;;;22.20;15.63;;;13.80;81.20;;;;;;5092991;28;20025;-80
2021/10/16 10:42:49;;;;;;;21.25;15.38;;;13.90;81.00;;;;;;5091277;28;20016;-80
2021/10/16 10:45:31;;;;;;;22.17;16.23;;;14.00;81.60;;;;;;5097641;28;20092;-80
2021/10/16 10:48:17;;;;;;;24.45;16.92;;;14.20;82.50;;;;;;5085927;28;20500;-80
2021/10/16 10:50:49;;;;;;;23.45;16.75;;;14.60;82.40;;;;;;5090811;28;20390;-80
2021/10/16 10:53:33;;;;;;;21.60;16.30;;;14.80;81.10;;;;;;5077652;28;20032;-78
2021/10/16 10:56:09;;;;;;;23.38;16.98;;;14.80;80.20;;;;;;5081154;28;20043;-78
2021/10/16 10:58:55;;;;;;;22.58;16.52;;;14.80;80.10;;;;;;5075877;28;20058;-78
2021/10/16 11:01:43;;;;;;;24.13;16.60;;;14.80;80.10;;;;;;5088247;28;20024;-78
2021/10/16 11:04:09;;;;;;;27.92;17.05;;;14.90;79.80;;;;;;5077118;28;20024;-78
2021/10/16 11:06:36;;;;;;;24.02;16.73;;;14.90;79.90;;;;;;5077106;28;20032;-78
2021/10/16 11:09:14;;;;;;;22.52;16.75;;;15.00;80.00;;;;;;5077054;28;20028;-76
2021/10/16 11:11:48;;;;;;;22.50;16.27;;;15.00;80.10;;;;;;5084433;28;20028;-76
2021/10/16 11:14:14;;;;;;;21.77;16.30;;;15.10;79.70;;;;;;5089285;28;20021;-76
2021/10/16 11:17:00;;;;;;;24.40;17.95;;;15.10;79.50;;;;;;5090484;28;20115;-76
2021/10/16 11:19:27;;;;;;;23.95;17.77;;;15.10;79.10;;;;;;5088254;28;20020;-76
2021/10/16 11:21:54;;;;;;;20.52;15.85;;;15.10;79.20;;;;;;5083510;28;20020;-76
2021/10/16 11:24:21;;;;;;;19.88;16.25;;;15.10;79.30;;;;;;5085809;28;20017;-76
2021/10/16 11:26:58;;;;;;;23.90;17.33;;;15.30;80.40;;;;;;5090324;28;20476;-77
2021/10/16 11:29:33;;;;;;;21.92;17.13;;;15.70;82.40;;;;;;5089160;28;20024;-77
2021/10/16 11:32:20;;;;;;;23.05;17.08;;;16.40;82.60;;;;;;5084996;28;20042;-77
2021/10/16 11:35:07;;;;;;;22.75;17.83;;;17.00;81.60;;;;;;5092725;28;20101;-77
2021/10/16 11:37:39;;;;;;;21.13;17.23;;;17.60;80.40;;;;;;5089959;28;20040;-77
2021/10/16 11:40:27;;;;;;;21.02;16.90;;;18.00;79.70;;;;;;5084492;28;20024;-77
2021/10/16 11:42:59;;;;;;;25.58;18.00;;;18.30;77.90;;;;;;5092129;28;20032;-77
2021/10/16 11:45:34;;;;;;;20.88;16.17;;;18.50;77.30;;;;;;5097099;28;20103;-76
2021/10/16 11:48:05;;;;;;;22.73;17.00;;;18.60;75.70;;;;;;5093109;28;20025;-76
2021/10/16 11:50:40;;;;;;;21.55;17.25;;;18.60;75.30;;;;;;5087604;28;20078;-76
2021/10/16 11:53:13;;;;;;;22.33;17.98;;;18.60;74.40;;;;;;5099159;28;20028;-76
2021/10/16 11:55:43;;;;;;;26.73;17.85;;;18.60;74.20;;;;;;5099582;28;20103;-76
2021/10/16 11:58:13;;;;;;;22.13;17.40;;;18.60;74.60;;;;;;5100653;28;20135;-76
2021/10/16 12:00:40;;;;;;;21.10;17.13;;;18.60;75.40;;;;;;5086855;28;20479;-76
2021/10/16 12:03:38;;;;;;;21.52;16.75;;;18.70;75.40;;;;;;5100884;28;20030;-76
2021/10/16 12:06:12;;;;;;;20.05;16.67;;;18.80;74.80;;;;;;5100244;28;20042;-76
2021/10/16 12:08:48;;;;;;;22.30;16.17;;;19.00;74.00;;;;;;5100653;28;20077;-76
2021/10/16 12:11:27;;;;;;;24.73;17.27;;;19.20;74.10;;;;;;5088332;28;20027;-76
2021/10/16 12:14:07;;;;;;;25.30;18.17;;;19.40;74.70;;;;;;5100122;28;20035;-77
2021/10/16 12:16:45;;;;;;;20.88;16.58;;;19.60;74.00;;;;;;5100736;28;20088;-77
2021/10/16 12:19:16;;;;;;;25.67;18.98;;;19.70;73.00;;;;;;5100641;28;20026;-75
2021/10/16 12:21:51;;;;;;;22.38;17.92;;;19.80;72.40;;;;;;5087227;28;20016;-77
2021/10/16 12:24:25;;;;;;;19.35;14.52;;;19.90;72.60;;;;;;5100325;28;20490;-76
2021/10/16 12:27:06;;;;;;;20.45;15.52;;;20.10;73.20;;;;;;5088167;28;20487;-76
2021/10/16 12:29:38;;;;;;;21.33;16.92;;;20.20;72.10;;;;;;5091153;28;20032;-76
2021/10/16 12:32:08;;;;;;;22.20;16.45;;;20.30;71.30;;;;;;5089697;28;20020;-75
2021/10/16 12:34:37;;;;;;;21.10;16.65;;;20.50;70.90;;;;;;5093427;28;20024;-76
2021/10/16 12:37:11;;;;;;;22.33;16.23;;;20.70;70.40;;;;;;5079595;28;20048;-78
2021/10/16 12:39:45;;;;;;;22.73;16.65;;;20.70;69.40;;;;;;5079423;28;20532;-77
2021/10/16 12:42:15;;;;;;;24.27;16.90;;;20.70;69.00;;;;;;5082900;28;20013;-78
2021/10/16 12:44:42;;;;;;;28.67;18.38;;;20.70;69.00;;;;;;5097117;28;20023;-77